sensor_id;sensor_type;location;lat;lon;timestamp;P1;durP1;ratioP1;P2;durP2;ratioP2
36995;SDS011;22905;50.340;10.776;2023-06-14T00:00:16;12.55;;;4.55;;
36995;SDS011;22905;50.340;10.776;2023-06-14T00:05:16;9.73;;;5.30;;
36995;SDS011;22905;50.340;10.776;2023-06-14T00:10:16;9.05;;;5.28;;
36995;SDS011;22905;50.340;10.776;2023-06-14T00:15:17;13.38;;;5.60;;
36995;SDS011;22905;50.340;10.776;2023-06-14T00:20:17;6.43;;;4.65;;
36995;SDS011;22905;50.340;10.776;2023-06-14T00:25:17;10.00;;;5.17;;
36995;SDS011;22905;50.340;10.776;2023-06-14T00:30:18;12.98;;;5.90;;
36995;SDS011;22905;50.340;10.776;2023-06-14T00:35:18;12.20;;;5.05;;
36995;SDS011;22905;50.340;10.776;2023-06-14T00:40:18;10.50;;;4.65;;
36995;SDS011;22905;50.340;10.776;2023-06-14T00:45:19;13.43;;;4.73;;
36995;SDS011;22905;50.340;10.776;2023-06-14T00:50:19;11.10;;;5.60;;
36995;SDS011;22905;50.340;10.776;2023-06-14T00:55:20;13.70;;;5.85;;
36995;SDS011;22905;50.340;10.776;2023-06-14T01:00:20;7.47;;;5.13;;
36995;SDS011;22905;50.340;10.776;2023-06-14T01:05:21;8.52;;;4.97;;
36995;SDS011;22905;50.340;10.776;2023-06-14T01:15:43;13.05;;;5.20;;
36995;SDS011;22905;50.340;10.776;2023-06-14T01:20:44;12.07;;;5.00;;
36995;SDS011;22905;50.340;10.776;2023-06-14T01:25:52;7.65;;;4.28;;
36995;SDS011;22905;50.340;10.776;2023-06-14T01:30:53;11.50;;;5.75;;
36995;SDS011;22905;50.340;10.776;2023-06-14T01:35:54;12.20;;;4.80;;
36995;SDS011;22905;50.340;10.776;2023-06-14T01:40:55;10.45;;;6.28;;
36995;SDS011;22905;50.340;10.776;2023-06-14T01:45:57;9.07;;;5.50;;
36995;SDS011;22905;50.340;10.776;2023-06-14T01:50:57;11.52;;;5.60;;
36995;SDS011;22905;50.340;10.776;2023-06-14T01:55:57;9.02;;;4.50;;
36995;SDS011;22905;50.340;10.776;2023-06-14T02:00:58;11.68;;;5.38;;
36995;SDS011;22905;50.340;10.776;2023-06-14T02:06:00;14.30;;;5.68;;
36995;SDS011;22905;50.340;10.776;2023-06-14T02:11:00;7.37;;;5.10;;
36995;SDS011;22905;50.340;10.776;2023-06-14T02:16:01;10.93;;;5.40;;
36995;SDS011;22905;50.340;10.776;2023-06-14T02:21:01;10.23;;;5.53;;
36995;SDS011;22905;50.340;10.776;2023-06-14T02:26:01;8.90;;;5.93;;
36995;SDS011;22905;50.340;10.776;2023-06-14T02:31:02;16.92;;;5.30;;
36995;SDS011;22905;50.340;10.776;2023-06-14T02:36:03;14.30;;;5.57;;
36995;SDS011;22905;50.340;10.776;2023-06-14T02:41:03;5.90;;;4.65;;
36995;SDS011;22905;50.340;10.776;2023-06-14T02:46:04;10.20;;;5.40;;
36995;SDS011;22905;50.340;10.776;2023-06-14T02:51:04;9.90;;;4.93;;
36995;SDS011;22905;50.340;10.776;2023-06-14T02:56:06;11.75;;;5.93;;
36995;SDS011;22905;50.340;10.776;2023-06-14T03:01:07;11.85;;;6.03;;
36995;SDS011;22905;50.340;10.776;2023-06-14T03:06:07;19.23;;;5.93;;
36995;SDS011;22905;50.340;10.776;2023-06-14T03:11:08;8.10;;;4.85;;
36995;SDS011;22905;50.340;10.776;2023-06-14T03:16:11;12.32;;;5.47;;
36995;SDS011;22905;50.340;10.776;2023-06-14T03:21:11;7.88;;;4.50;;
36995;SDS011;22905;50.340;10.776;2023-06-14T03:26:11;6.90;;;4.57;;
36995;SDS011;22905;50.340;10.776;2023-06-14T03:31:15;11.85;;;5.93;;
36995;SDS011;22905;50.340;10.776;2023-06-14T03:36:16;11.68;;;4.80;;
36995;SDS011;22905;50.340;10.776;2023-06-14T03:41:17;11.00;;;5.65;;
36995;SDS011;22905;50.340;10.776;2023-06-14T03:46:18;9.82;;;5.45;;
36995;SDS011;22905;50.340;10.776;2023-06-14T03:51:18;12.57;;;5.35;;
36995;SDS011;22905;50.340;10.776;2023-06-14T03:56:18;10.25;;;5.32;;
36995;SDS011;22905;50.340;10.776;2023-06-14T04:01:18;11.30;;;4.90;;
36995;SDS011;22905;50.340;10.776;2023-06-14T04:06:19;11.05;;;5.20;;
36995;SDS011;22905;50.340;10.776;2023-06-14T04:11:19;6.80;;;4.80;;
36995;SDS011;22905;50.340;10.776;2023-06-14T04:16:20;9.43;;;4.13;;
36995;SDS011;22905;50.340;10.776;2023-06-14T04:21:20;10.57;;;4.28;;
36995;SDS011;22905;50.340;10.776;2023-06-14T04:26:21;6.03;;;4.18;;
36995;SDS011;22905;50.340;10.776;2023-06-14T04:31:23;8.75;;;4.93;;
36995;SDS011;22905;50.340;10.776;2023-06-14T04:36:29;7.25;;;3.88;;
36995;SDS011;22905;50.340;10.776;2023-06-14T04:41:29;8.75;;;4.78;;
36995;SDS011;22905;50.340;10.776;2023-06-14T04:46:30;9.02;;;4.00;;
36995;SDS011;22905;50.340;10.776;2023-06-14T04:51:32;11.43;;;4.10;;
36995;SDS011;22905;50.340;10.776;2023-06-14T04:56:33;14.25;;;3.85;;
36995;SDS011;22905;50.340;10.776;2023-06-14T05:01:34;7.00;;;4.35;;
36995;SDS011;22905;50.340;10.776;2023-06-14T05:06:35;9.38;;;4.15;;
36995;SDS011;22905;50.340;10.776;2023-06-14T05:11:36;10.40;;;4.40;;
36995;SDS011;22905;50.340;10.776;2023-06-14T05:16:36;7.93;;;3.40;;
36995;SDS011;22905;50.340;10.776;2023-06-14T05:21:37;8.63;;;4.28;;
36995;SDS011;22905;50.340;10.776;2023-06-14T05:26:37;6.10;;;3.90;;
36995;SDS011;22905;50.340;10.776;2023-06-14T05:31:37;11.70;;;3.63;;
36995;SDS011;22905;50.340;10.776;2023-06-14T05:36:38;6.95;;;4.38;;
36995;SDS011;22905;50.340;10.776;2023-06-14T05:41:39;7.82;;;4.53;;
36995;SDS011;22905;50.340;10.776;2023-06-14T05:46:39;9.27;;;3.97;;
36995;SDS011;22905;50.340;10.776;2023-06-14T05:51:40;10.77;;;3.70;;
36995;SDS011;22905;50.340;10.776;2023-06-14T05:56:40;4.90;;;3.60;;
36995;SDS011;22905;50.340;10.776;2023-06-14T06:01:40;10.07;;;4.22;;
36995;SDS011;22905;50.340;10.776;2023-06-14T06:06:41;7.00;;;3.08;;
36995;SDS011;22905;50.340;10.776;2023-06-14T06:11:41;13.15;;;3.63;;
36995;SDS011;22905;50.340;10.776;2023-06-14T06:16:41;7.47;;;3.50;;
36995;SDS011;22905;50.340;10.776;2023-06-14T06:21:42;5.10;;;3.53;;
36995;SDS011;22905;50.340;10.776;2023-06-14T06:26:45;4.15;;;2.70;;
36995;SDS011;22905;50.340;10.776;2023-06-14T06:31:48;5.90;;;3.33;;
36995;SDS011;22905;50.340;10.776;2023-06-14T06:36:48;8.00;;;3.13;;
36995;SDS011;22905;50.340;10.776;2023-06-14T06:41:48;10.83;;;3.30;;
36995;SDS011;22905;50.340;10.776;2023-06-14T06:46:49;6.72;;;2.88;;
36995;SDS011;22905;50.340;10.776;2023-06-14T06:51:59;6.35;;;3.33;;
36995;SDS011;22905;50.340;10.776;2023-06-14T06:57:04;7.88;;;3.20;;
36995;SDS011;22905;50.340;10.776;2023-06-14T07:02:05;5.43;;;3.30;;
36995;SDS011;22905;50.340;10.776;2023-06-14T07:07:06;6.78;;;2.53;;
36995;SDS011;22905;50.340;10.776;2023-06-14T07:12:06;5.73;;;2.10;;
36995;SDS011;22905;50.340;10.776;2023-06-14T07:17:07;5.23;;;2.07;;
36995;SDS011;22905;50.340;10.776;2023-06-14T07:22:08;5.22;;;2.92;;
36995;SDS011;22905;50.340;10.776;2023-06-14T07:27:08;3.23;;;2.17;;
36995;SDS011;22905;50.340;10.776;2023-06-14T07:32:08;2.87;;;2.60;;
36995;SDS011;22905;50.340;10.776;2023-06-14T07:37:09;4.90;;;3.15;;
36995;SDS011;22905;50.340;10.776;2023-06-14T07:42:09;5.72;;;3.03;;
36995;SDS011;22905;50.340;10.776;2023-06-14T07:47:10;4.97;;;2.70;;
36995;SDS011;22905;50.340;10.776;2023-06-14T07:52:11;5.78;;;2.80;;
36995;SDS011;22905;50.340;10.776;2023-06-14T07:57:11;7.80;;;3.13;;
36995;SDS011;22905;50.340;10.776;2023-06-14T08:02:11;5.45;;;2.78;;
36995;SDS011;22905;50.340;10.776;2023-06-14T08:07:12;8.32;;;3.22;;
36995;SDS011;22905;50.340;10.776;2023-06-14T08:12:12;4.80;;;2.72;;
36995;SDS011;22905;50.340;10.776;2023-06-14T08:17:12;3.63;;;2.30;;
36995;SDS011;22905;50.340;10.776;2023-06-14T08:22:13;3.37;;;2.30;;
36995;SDS011;22905;50.340;10.776;2023-06-14T08:27:13;3.00;;;2.45;;
36995;SDS011;22905;50.340;10.776;2023-06-14T08:32:13;5.60;;;2.28;;
36995;SDS011;22905;50.340;10.776;2023-06-14T08:37:13;4.63;;;2.20;;
36995;SDS011;22905;50.340;10.776;2023-06-14T08:42:14;6.90;;;2.40;;
36995;SDS011;22905;50.340;10.776;2023-06-14T08:47:15;14.63;;;2.83;;
36995;SDS011;22905;50.340;10.776;2023-06-14T08:52:18;4.65;;;1.85;;
36995;SDS011;22905;50.340;10.776;2023-06-14T09:02:20;4.22;;;2.33;;
36995;SDS011;22905;50.340;10.776;2023-06-14T09:07:22;3.03;;;1.90;;
36995;SDS011;22905;50.340;10.776;2023-06-14T09:12:22;3.97;;;1.92;;
36995;SDS011;22905;50.340;10.776;2023-06-14T09:17:23;3.23;;;2.87;;
36995;SDS011;22905;50.340;10.776;2023-06-14T09:22:23;5.90;;;2.00;;
36995;SDS011;22905;50.340;10.776;2023-06-14T09:27:25;3.60;;;2.10;;
36995;SDS011;22905;50.340;10.776;2023-06-14T09:32:26;5.72;;;2.17;;
36995;SDS011;22905;50.340;10.776;2023-06-14T09:37:30;3.22;;;2.13;;
36995;SDS011;22905;50.340;10.776;2023-06-14T09:42:31;4.90;;;1.55;;
36995;SDS011;22905;50.340;10.776;2023-06-14T09:47:36;4.30;;;2.60;;
36995;SDS011;22905;50.340;10.776;2023-06-14T09:52:37;9.77;;;6.03;;
36995;SDS011;22905;50.340;10.776;2023-06-14T09:57:38;6.10;;;2.42;;
36995;SDS011;22905;50.340;10.776;2023-06-14T10:02:41;3.85;;;2.30;;
36995;SDS011;22905;50.340;10.776;2023-06-14T10:12:47;3.17;;;2.25;;
36995;SDS011;22905;50.340;10.776;2023-06-14T10:17:59;2.97;;;1.80;;
36995;SDS011;22905;50.340;10.776;2023-06-14T10:23:08;18.73;;;9.50;;
36995;SDS011;22905;50.340;10.776;2023-06-14T10:33:12;4.00;;;2.08;;
36995;SDS011;22905;50.340;10.776;2023-06-14T10:38:15;5.97;;;2.60;;
36995;SDS011;22905;50.340;10.776;2023-06-14T10:43:20;9.37;;;2.50;;
36995;SDS011;22905;50.340;10.776;2023-06-14T10:48:29;5.80;;;2.25;;
36995;SDS011;22905;50.340;10.776;2023-06-14T10:53:30;5.10;;;2.83;;
36995;SDS011;22905;50.340;10.776;2023-06-14T10:58:40;7.22;;;2.95;;
36995;SDS011;22905;50.340;10.776;2023-06-14T11:03:44;6.25;;;2.78;;
36995;SDS011;22905;50.340;10.776;2023-06-14T11:14:10;6.20;;;2.72;;
36995;SDS011;22905;50.340;10.776;2023-06-14T11:19:11;3.05;;;2.22;;
36995;SDS011;22905;50.340;10.776;2023-06-14T11:24:11;5.97;;;2.97;;
36995;SDS011;22905;50.340;10.776;2023-06-14T11:29:12;4.63;;;2.38;;
36995;SDS011;22905;50.340;10.776;2023-06-14T11:34:12;4.27;;;2.53;;
36995;SDS011;22905;50.340;10.776;2023-06-14T11:39:13;5.43;;;1.97;;
36995;SDS011;22905;50.340;10.776;2023-06-14T11:44:13;3.10;;;2.50;;
36995;SDS011;22905;50.340;10.776;2023-06-14T11:49:14;5.55;;;2.40;;
36995;SDS011;22905;50.340;10.776;2023-06-14T11:54:14;8.43;;;2.37;;
36995;SDS011;22905;50.340;10.776;2023-06-14T11:59:15;5.13;;;3.10;;
36995;SDS011;22905;50.340;10.776;2023-06-14T12:04:23;4.03;;;2.10;;
36995;SDS011;22905;50.340;10.776;2023-06-14T12:09:25;11.07;;;2.40;;
36995;SDS011;22905;50.340;10.776;2023-06-14T12:14:30;5.32;;;2.25;;
36995;SDS011;22905;50.340;10.776;2023-06-14T12:19:31;3.47;;;2.20;;
36995;SDS011;22905;50.340;10.776;2023-06-14T12:24:32;3.83;;;2.40;;
36995;SDS011;22905;50.340;10.776;2023-06-14T12:29:42;2.70;;;2.05;;
36995;SDS011;22905;50.340;10.776;2023-06-14T12:34:45;3.75;;;2.38;;
36995;SDS011;22905;50.340;10.776;2023-06-14T12:39:46;4.67;;;2.03;;
36995;SDS011;22905;50.340;10.776;2023-06-14T12:44:46;5.60;;;2.17;;
36995;SDS011;22905;50.340;10.776;2023-06-14T12:49:46;3.55;;;2.42;;
36995;SDS011;22905;50.340;10.776;2023-06-14T12:54:47;1.95;;;1.83;;
36995;SDS011;22905;50.340;10.776;2023-06-14T12:59:47;5.43;;;1.90;;
36995;SDS011;22905;50.340;10.776;2023-06-14T13:04:48;2.50;;;2.30;;
36995;SDS011;22905;50.340;10.776;2023-06-14T13:09:48;6.70;;;2.30;;
36995;SDS011;22905;50.340;10.776;2023-06-14T13:14:56;13.10;;;2.20;;
36995;SDS011;22905;50.340;10.776;2023-06-14T13:20:38;2.90;;;2.40;;
36995;SDS011;22905;50.340;10.776;2023-06-14T13:25:39;3.17;;;2.73;;
36995;SDS011;22905;50.340;10.776;2023-06-14T13:30:39;10.43;;;2.20;;
36995;SDS011;22905;50.340;10.776;2023-06-14T13:35:40;5.77;;;2.67;;
36995;SDS011;22905;50.340;10.776;2023-06-14T13:40:40;10.60;;;2.40;;
36995;SDS011;22905;50.340;10.776;2023-06-14T13:45:41;7.73;;;2.20;;
36995;SDS011;22905;50.340;10.776;2023-06-14T13:50:41;3.92;;;2.00;;
36995;SDS011;22905;50.340;10.776;2023-06-14T13:55:42;4.97;;;2.70;;
36995;SDS011;22905;50.340;10.776;2023-06-14T14:00:42;5.17;;;2.47;;
36995;SDS011;22905;50.340;10.776;2023-06-14T14:05:42;9.93;;;2.55;;
36995;SDS011;22905;50.340;10.776;2023-06-14T14:10:43;2.80;;;2.28;;
36995;SDS011;22905;50.340;10.776;2023-06-14T14:15:44;4.30;;;2.30;;
36995;SDS011;22905;50.340;10.776;2023-06-14T14:20:44;2.83;;;2.10;;
36995;SDS011;22905;50.340;10.776;2023-06-14T14:25:45;5.37;;;2.50;;
36995;SDS011;22905;50.340;10.776;2023-06-14T14:30:45;5.05;;;2.22;;
36995;SDS011;22905;50.340;10.776;2023-06-14T14:40:47;10.77;;;2.28;;
36995;SDS011;22905;50.340;10.776;2023-06-14T14:45:47;4.83;;;2.53;;
36995;SDS011;22905;50.340;10.776;2023-06-14T14:50:48;16.67;;;3.17;;
36995;SDS011;22905;50.340;10.776;2023-06-14T14:55:48;4.67;;;2.03;;
36995;SDS011;22905;50.340;10.776;2023-06-14T15:00:49;6.77;;;3.10;;
36995;SDS011;22905;50.340;10.776;2023-06-14T15:05:49;5.77;;;2.70;;
36995;SDS011;22905;50.340;10.776;2023-06-14T15:10:50;3.75;;;2.47;;
36995;SDS011;22905;50.340;10.776;2023-06-14T15:15:50;7.03;;;3.75;;
36995;SDS011;22905;50.340;10.776;2023-06-14T15:20:51;5.10;;;2.60;;
36995;SDS011;22905;50.340;10.776;2023-06-14T15:25:51;3.90;;;2.20;;
36995;SDS011;22905;50.340;10.776;2023-06-14T15:30:52;3.40;;;2.53;;
36995;SDS011;22905;50.340;10.776;2023-06-14T15:35:52;4.90;;;1.98;;
36995;SDS011;22905;50.340;10.776;2023-06-14T15:40:52;3.20;;;2.42;;
36995;SDS011;22905;50.340;10.776;2023-06-14T15:45:52;16.30;;;3.50;;
36995;SDS011;22905;50.340;10.776;2023-06-14T15:50:53;2.93;;;2.30;;
36995;SDS011;22905;50.340;10.776;2023-06-14T15:55:53;2.73;;;2.30;;
36995;SDS011;22905;50.340;10.776;2023-06-14T16:00:53;4.10;;;2.57;;
36995;SDS011;22905;50.340;10.776;2023-06-14T16:05:54;5.88;;;2.72;;
36995;SDS011;22905;50.340;10.776;2023-06-14T16:10:54;4.72;;;2.65;;
36995;SDS011;22905;50.340;10.776;2023-06-14T16:15:58;3.03;;;2.67;;
36995;SDS011;22905;50.340;10.776;2023-06-14T16:20:58;6.95;;;2.78;;
36995;SDS011;22905;50.340;10.776;2023-06-14T16:25:58;4.07;;;2.63;;
36995;SDS011;22905;50.340;10.776;2023-06-14T16:30:59;5.43;;;2.67;;
36995;SDS011;22905;50.340;10.776;2023-06-14T16:35:59;2.80;;;2.47;;
36995;SDS011;22905;50.340;10.776;2023-06-14T16:40:59;5.33;;;2.53;;
36995;SDS011;22905;50.340;10.776;2023-06-14T16:46:00;10.27;;;2.60;;
36995;SDS011;22905;50.340;10.776;2023-06-14T16:51:00;5.37;;;2.90;;
36995;SDS011;22905;50.340;10.776;2023-06-14T16:56:01;9.40;;;2.88;;
36995;SDS011;22905;50.340;10.776;2023-06-14T17:01:02;5.03;;;2.87;;
36995;SDS011;22905;50.340;10.776;2023-06-14T17:06:03;5.07;;;2.72;;
36995;SDS011;22905;50.340;10.776;2023-06-14T17:11:03;4.63;;;2.63;;
36995;SDS011;22905;50.340;10.776;2023-06-14T17:16:04;3.33;;;2.67;;
36995;SDS011;22905;50.340;10.776;2023-06-14T17:21:06;3.65;;;2.55;;
36995;SDS011;22905;50.340;10.776;2023-06-14T17:26:06;5.37;;;2.90;;
36995;SDS011;22905;50.340;10.776;2023-06-14T17:31:07;5.45;;;2.40;;
36995;SDS011;22905;50.340;10.776;2023-06-14T17:36:07;7.97;;;2.75;;
36995;SDS011;22905;50.340;10.776;2023-06-14T17:41:08;2.60;;;2.30;;
36995;SDS011;22905;50.340;10.776;2023-06-14T17:46:09;7.13;;;2.57;;
36995;SDS011;22905;50.340;10.776;2023-06-14T17:51:09;5.85;;;3.10;;
36995;SDS011;22905;50.340;10.776;2023-06-14T17:56:10;2.97;;;2.65;;
36995;SDS011;22905;50.340;10.776;2023-06-14T18:01:11;3.95;;;2.22;;
36995;SDS011;22905;50.340;10.776;2023-06-14T18:06:11;8.07;;;2.97;;
36995;SDS011;22905;50.340;10.776;2023-06-14T18:11:11;2.78;;;2.35;;
36995;SDS011;22905;50.340;10.776;2023-06-14T18:16:12;3.47;;;2.25;;
36995;SDS011;22905;50.340;10.776;2023-06-14T18:21:14;3.85;;;2.50;;
36995;SDS011;22905;50.340;10.776;2023-06-14T18:26:14;5.25;;;2.22;;
36995;SDS011;22905;50.340;10.776;2023-06-14T18:31:16;4.25;;;2.47;;
36995;SDS011;22905;50.340;10.776;2023-06-14T18:36:16;3.67;;;2.30;;
36995;SDS011;22905;50.340;10.776;2023-06-14T18:41:18;3.20;;;2.40;;
36995;SDS011;22905;50.340;10.776;2023-06-14T18:46:18;2.90;;;2.17;;
36995;SDS011;22905;50.340;10.776;2023-06-14T18:51:18;4.32;;;2.53;;
36995;SDS011;22905;50.340;10.776;2023-06-14T18:56:19;4.60;;;2.30;;
36995;SDS011;22905;50.340;10.776;2023-06-14T19:01:20;3.10;;;2.07;;
36995;SDS011;22905;50.340;10.776;2023-06-14T19:06:20;6.80;;;2.63;;
36995;SDS011;22905;50.340;10.776;2023-06-14T19:11:24;6.65;;;2.50;;
36995;SDS011;22905;50.340;10.776;2023-06-14T19:16:24;3.80;;;2.33;;
36995;SDS011;22905;50.340;10.776;2023-06-14T19:21:24;10.93;;;2.30;;
36995;SDS011;22905;50.340;10.776;2023-06-14T19:26:25;4.53;;;2.45;;
36995;SDS011;22905;50.340;10.776;2023-06-14T19:31:26;3.33;;;2.20;;
36995;SDS011;22905;50.340;10.776;2023-06-14T19:36:26;4.20;;;2.87;;
36995;SDS011;22905;50.340;10.776;2023-06-14T19:41:26;5.57;;;2.73;;
36995;SDS011;22905;50.340;10.776;2023-06-14T19:46:27;3.85;;;2.75;;
36995;SDS011;22905;50.340;10.776;2023-06-14T19:51:28;5.78;;;3.25;;
36995;SDS011;22905;50.340;10.776;2023-06-14T19:56:29;5.40;;;2.47;;
36995;SDS011;22905;50.340;10.776;2023-06-14T20:01:30;5.20;;;2.97;;
36995;SDS011;22905;50.340;10.776;2023-06-14T20:06:30;7.32;;;3.55;;
36995;SDS011;22905;50.340;10.776;2023-06-14T20:11:31;8.67;;;2.87;;
36995;SDS011;22905;50.340;10.776;2023-06-14T20:16:31;7.85;;;3.40;;
36995;SDS011;22905;50.340;10.776;2023-06-14T20:21:32;7.55;;;3.38;;
36995;SDS011;22905;50.340;10.776;2023-06-14T20:26:32;8.52;;;3.88;;
36995;SDS011;22905;50.340;10.776;2023-06-14T20:31:33;3.90;;;2.85;;
36995;SDS011;22905;50.340;10.776;2023-06-14T20:36:34;5.93;;;3.27;;
36995;SDS011;22905;50.340;10.776;2023-06-14T20:41:35;5.82;;;3.72;;
36995;SDS011;22905;50.340;10.776;2023-06-14T20:46:35;5.63;;;2.78;;
36995;SDS011;22905;50.340;10.776;2023-06-14T20:51:37;4.75;;;2.42;;
36995;SDS011;22905;50.340;10.776;2023-06-14T20:56:37;4.30;;;3.33;;
36995;SDS011;22905;50.340;10.776;2023-06-14T21:01:38;5.32;;;3.15;;
36995;SDS011;22905;50.340;10.776;2023-06-14T21:06:39;4.40;;;3.00;;
36995;SDS011;22905;50.340;10.776;2023-06-14T21:11:39;7.18;;;3.28;;
36995;SDS011;22905;50.340;10.776;2023-06-14T21:16:40;4.60;;;3.10;;
36995;SDS011;22905;50.340;10.776;2023-06-14T21:21:40;8.68;;;3.60;;
36995;SDS011;22905;50.340;10.776;2023-06-14T21:26:40;6.57;;;3.00;;
36995;SDS011;22905;50.340;10.776;2023-06-14T21:31:41;7.45;;;4.13;;
36995;SDS011;22905;50.340;10.776;2023-06-14T21:36:41;6.67;;;3.33;;
36995;SDS011;22905;50.340;10.776;2023-06-14T21:41:41;9.13;;;3.70;;
36995;SDS011;22905;50.340;10.776;2023-06-14T21:46:41;4.63;;;3.13;;
36995;SDS011;22905;50.340;10.776;2023-06-14T21:51:42;5.63;;;3.03;;
36995;SDS011;22905;50.340;10.776;2023-06-14T21:56:42;7.00;;;3.17;;
36995;SDS011;22905;50.340;10.776;2023-06-14T22:01:43;6.65;;;3.63;;
36995;SDS011;22905;50.340;10.776;2023-06-14T22:06:43;4.78;;;3.05;;
36995;SDS011;22905;50.340;10.776;2023-06-14T22:11:45;4.50;;;3.33;;
36995;SDS011;22905;50.340;10.776;2023-06-14T22:16:45;5.50;;;3.00;;
36995;SDS011;22905;50.340;10.776;2023-06-14T22:21:46;4.15;;;3.30;;
36995;SDS011;22905;50.340;10.776;2023-06-14T22:26:50;4.25;;;2.92;;
36995;SDS011;22905;50.340;10.776;2023-06-14T22:31:56;5.00;;;3.25;;
36995;SDS011;22905;50.340;10.776;2023-06-14T22:36:56;5.85;;;3.35;;
36995;SDS011;22905;50.340;10.776;2023-06-14T22:41:56;5.78;;;3.70;;
36995;SDS011;22905;50.340;10.776;2023-06-14T22:46:57;4.82;;;3.50;;
36995;SDS011;22905;50.340;10.776;2023-06-14T22:57:01;4.68;;;3.13;;
36995;SDS011;22905;50.340;10.776;2023-06-14T23:02:01;6.57;;;3.60;;
36995;SDS011;22905;50.340;10.776;2023-06-14T23:07:01;4.50;;;3.13;;
36995;SDS011;22905;50.340;10.776;2023-06-14T23:12:03;6.03;;;3.43;;
36995;SDS011;22905;50.340;10.776;2023-06-14T23:17:07;5.90;;;3.53;;
36995;SDS011;22905;50.340;10.776;2023-06-14T23:22:08;6.05;;;3.72;;
36995;SDS011;22905;50.340;10.776;2023-06-14T23:27:12;6.65;;;3.80;;
36995;SDS011;22905;50.340;10.776;2023-06-14T23:32:13;4.32;;;3.80;;
36995;SDS011;22905;50.340;10.776;2023-06-14T23:37:13;6.38;;;4.38;;
36995;SDS011;22905;50.340;10.776;2023-06-14T23:42:14;4.72;;;3.47;;
36995;SDS011;22905;50.340;10.776;2023-06-14T23:47:14;6.57;;;4.35;;
36995;SDS011;22905;50.340;10.776;2023-06-14T23:52:15;6.32;;;4.38;;
36995;SDS011;22905;50.340;10.776;2023-06-14T23:57:17;5.00;;;4.07;;
